createdAt,value
2018-02-13T00:01:46.703Z,13.73
2018-02-13T00:04:14.200Z,12.15
2018-02-13T00:06:42.574Z,13.15
2018-02-13T00:09:10.955Z,12.25
2018-02-13T00:11:39.299Z,13.88
2018-02-13T00:14:06.798Z,12.48
2018-02-13T00:16:35.145Z,11.85
2018-02-13T00:19:02.643Z,13.40
2018-02-13T00:21:30.288Z,12.77
2018-02-13T00:23:58.551Z,11.70
2018-02-13T00:26:26.042Z,11.85
2018-02-13T00:28:53.586Z,12.43
2018-02-13T00:31:21.846Z,12.15
2018-02-13T00:33:49.355Z,12.43
2018-02-13T00:36:16.863Z,12.85
2018-02-13T00:38:44.354Z,12.55
2018-02-13T00:41:11.858Z,12.20
2018-02-13T00:43:39.366Z,12.48
2018-02-13T00:46:06.854Z,10.75
2018-02-13T00:48:34.362Z,10.77
2018-02-13T00:51:02.852Z,10.93
2018-02-13T00:53:31.333Z,11.32
2018-02-13T00:55:59.590Z,10.35
2018-02-13T00:58:27.091Z,10.15
2018-02-13T01:00:54.582Z,11.20
2018-02-13T01:03:22.070Z,10.10
2018-02-13T01:05:50.342Z,11.23
2018-02-13T01:08:17.840Z,11.00
2018-02-13T01:10:45.338Z,11.15
2018-02-13T01:13:12.843Z,11.88
2018-02-13T01:15:40.354Z,11.07
2018-02-13T01:18:07.862Z,11.77
2018-02-13T01:20:35.357Z,12.55
2018-02-13T01:23:02.854Z,12.63
2018-02-13T01:25:30.345Z,12.02
2018-02-13T01:27:57.884Z,12.85
2018-02-13T01:30:26.363Z,13.60
2018-02-13T01:32:54.647Z,13.35
2018-02-13T01:35:22.902Z,13.02
2018-02-13T01:37:50.390Z,14.70
2018-02-13T01:40:17.910Z,13.62
2018-02-13T01:42:45.406Z,14.57
2018-02-13T01:45:12.946Z,13.30
2018-02-13T01:47:41.211Z,14.38
2018-02-13T01:50:21.884Z,14.85
2018-02-13T01:52:50.150Z,14.13
2018-02-13T01:55:17.640Z,14.73
2018-02-13T01:57:45.142Z,15.57
2018-02-13T02:00:12.640Z,15.40
2018-02-13T02:02:40.895Z,13.77
2018-02-13T02:05:08.388Z,14.27
2018-02-13T02:07:35.882Z,13.98
2018-02-13T02:10:03.381Z,15.52
2018-02-13T02:12:30.891Z,15.52
2018-02-13T02:14:58.398Z,14.77
2018-02-13T02:17:25.930Z,15.18
2018-02-13T02:19:53.426Z,14.38
2018-02-13T02:22:21.696Z,15.32
2018-02-13T02:24:49.962Z,14.20
2018-02-13T02:27:17.637Z,15.43
2018-02-13T02:29:46.020Z,14.87
2018-02-13T02:32:14.494Z,17.25
2018-02-13T02:34:42.755Z,15.35
2018-02-13T02:37:10.262Z,16.65
2018-02-13T02:39:37.750Z,16.80
2018-02-13T02:42:05.256Z,16.92
2018-02-13T02:44:33.533Z,16.73
2018-02-13T02:47:01.790Z,17.02
2018-02-13T02:49:30.175Z,18.42
2018-02-13T02:51:58.554Z,17.80
2018-02-13T02:54:26.818Z,16.90
2018-02-13T02:56:55.080Z,18.02
2018-02-13T02:59:22.773Z,18.67
2018-02-13T03:01:51.035Z,18.12
2018-02-13T03:04:18.722Z,19.02
2018-02-13T03:06:46.219Z,16.62
2018-02-13T03:09:13.931Z,19.80
2018-02-13T03:11:42.191Z,17.85
2018-02-13T03:14:09.876Z,18.60
2018-02-13T03:16:38.135Z,18.50
2018-02-13T03:19:05.633Z,18.05
2018-02-13T03:21:33.123Z,17.70
2018-02-13T03:24:00.626Z,16.65
2018-02-13T03:26:28.893Z,17.17
2018-02-13T03:28:57.375Z,16.95
2018-02-13T03:31:25.635Z,15.77
2018-02-13T03:33:53.153Z,16.48
2018-02-13T03:36:20.642Z,17.62
2018-02-13T03:38:48.130Z,16.48
2018-02-13T03:41:16.398Z,16.65
2018-02-13T03:43:44.654Z,16.10
2018-02-13T03:46:12.151Z,16.10
2018-02-13T03:48:40.418Z,16.95
2018-02-13T03:51:09.286Z,18.90
2018-02-13T03:53:36.774Z,18.15
2018-02-13T03:56:04.283Z,17.52
2018-02-13T03:58:31.778Z,18.73
2018-02-13T04:01:00.040Z,18.55
2018-02-13T04:03:27.546Z,19.12
2018-02-13T04:05:55.175Z,18.37
2018-02-13T04:08:23.434Z,19.30
2018-02-13T04:10:50.924Z,19.42
2018-02-13T04:13:18.439Z,20.02
2018-02-13T04:15:45.938Z,19.92
2018-02-13T04:18:13.454Z,18.85
2018-02-13T04:20:41.060Z,18.23
2018-02-13T04:23:08.574Z,19.27
2018-02-13T04:25:36.067Z,20.20
2018-02-13T04:28:04.330Z,19.92
2018-02-13T04:30:32.711Z,19.48
2018-02-13T04:33:00.970Z,20.92
2018-02-13T04:35:28.459Z,19.98
2018-02-13T04:37:55.971Z,19.65
2018-02-13T04:40:23.461Z,18.48
2018-02-13T04:42:51.717Z,19.73
2018-02-13T04:45:19.210Z,17.87
2018-02-13T04:47:46.709Z,21.00
2018-02-13T04:50:14.198Z,20.33
2018-02-13T04:52:41.706Z,21.95
2018-02-13T04:55:09.199Z,26.67
2018-02-13T04:57:36.891Z,23.60
2018-02-13T05:00:05.309Z,20.48
2018-02-13T05:02:32.938Z,19.85
2018-02-13T05:05:01.202Z,22.77
2018-02-13T05:07:29.469Z,21.42
2018-02-13T05:09:56.972Z,19.45
2018-02-13T05:12:24.474Z,22.77
2018-02-13T05:14:51.968Z,24.45
2018-02-13T05:17:20.238Z,19.95
2018-02-13T05:19:48.498Z,26.35
2018-02-13T05:22:16.007Z,20.48
2018-02-13T05:24:43.634Z,20.37
2018-02-13T05:27:11.894Z,17.80
2018-02-13T05:29:39.388Z,19.05
2018-02-13T05:32:06.884Z,18.17
2018-02-13T05:34:34.374Z,19.15
2018-02-13T05:37:02.638Z,22.92
2018-02-13T05:39:30.334Z,20.65
2018-02-13T05:41:57.834Z,18.92
2018-02-13T05:44:25.327Z,20.62
2018-02-13T05:46:52.830Z,18.10
2018-02-13T05:49:20.331Z,19.02
2018-02-13T05:51:47.840Z,51.10
2018-02-13T05:54:15.340Z,57.15
2018-02-13T05:56:42.838Z,59.80
2018-02-13T05:59:11.103Z,66.10
2018-02-13T06:01:39.363Z,59.75
2018-02-13T06:04:06.852Z,55.25
2018-02-13T06:06:34.352Z,56.45
2018-02-13T06:09:01.850Z,58.53
2018-02-13T06:11:30.149Z,50.67
2018-02-13T06:13:57.642Z,50.60
2018-02-13T06:16:25.134Z,18.92
2018-02-13T06:18:52.633Z,22.83
2018-02-13T06:21:20.133Z,21.00
2018-02-13T06:23:47.629Z,21.95
2018-02-13T06:26:15.890Z,21.17
2018-02-13T06:28:44.152Z,23.73
2018-02-13T06:31:11.642Z,22.48
2018-02-13T06:33:39.130Z,21.95
2018-02-13T06:36:06.638Z,21.17
2018-02-13T06:38:34.903Z,20.83
2018-02-13T06:41:02.394Z,21.45
2018-02-13T06:43:29.889Z,22.75
2018-02-13T06:45:57.390Z,23.45
2018-02-13T06:48:25.666Z,22.02
2018-02-13T06:50:53.934Z,21.08
2018-02-13T06:53:21.432Z,20.75
2018-02-13T06:55:48.990Z,20.25
2018-02-13T06:58:16.494Z,19.58
2018-02-13T07:00:43.990Z,22.55
2018-02-13T07:03:11.495Z,21.98
2018-02-13T07:05:38.987Z,22.30
2018-02-13T07:08:07.246Z,21.02
2018-02-13T07:10:36.247Z,20.90
2018-02-13T07:13:03.745Z,21.25
2018-02-13T07:15:31.251Z,22.00
2018-02-13T07:17:58.742Z,26.80
2018-02-13T07:20:27.002Z,26.33
2018-02-13T07:22:54.495Z,23.10
2018-02-13T07:25:22.004Z,21.90
2018-02-13T07:27:49.501Z,23.52
2018-02-13T07:30:16.994Z,23.27
2018-02-13T07:32:44.498Z,21.67
2018-02-13T07:35:12.764Z,23.90
2018-02-13T07:37:40.254Z,21.12
2018-02-13T07:40:07.754Z,21.08
2018-02-13T07:42:35.475Z,22.33
2018-02-13T07:45:03.738Z,18.95
2018-02-13T07:47:31.998Z,19.73
2018-02-13T07:49:59.675Z,19.02
2018-02-13T07:52:27.942Z,18.85
2018-02-13T07:54:55.614Z,20.17
2018-02-13T07:57:23.875Z,19.65
2018-02-13T07:59:51.382Z,21.05
2018-02-13T08:02:18.913Z,19.30
2018-02-13T08:04:46.486Z,19.62
2018-02-13T08:07:13.991Z,18.98
2018-02-13T08:09:41.502Z,21.50
2018-02-13T08:12:09.149Z,21.25
2018-02-13T08:14:37.399Z,19.15
2018-02-13T08:17:04.913Z,18.52
2018-02-13T08:19:32.421Z,18.62
2018-02-13T08:21:59.926Z,18.60
2018-02-13T08:24:27.434Z,18.17
2018-02-13T08:26:54.939Z,16.27
2018-02-13T08:29:22.551Z,16.67
2018-02-13T08:31:50.254Z,18.05
2018-02-13T08:34:17.961Z,17.77
2018-02-13T08:36:45.879Z,17.35
2018-02-13T08:39:14.484Z,15.50
2018-02-13T08:41:42.371Z,15.10
2018-02-13T08:44:10.219Z,15.27
2018-02-13T08:46:38.058Z,15.35
2018-02-13T08:49:06.458Z,15.70
2018-02-13T08:51:34.106Z,14.25
2018-02-13T08:54:02.475Z,12.82
2018-02-13T08:56:30.817Z,11.25
2018-02-13T08:58:58.452Z,11.93
2018-02-13T09:01:26.310Z,12.15
2018-02-13T09:03:54.186Z,12.37
2018-02-13T09:06:21.843Z,11.40
2018-02-13T09:08:49.641Z,12.77
2018-02-13T09:11:17.556Z,11.73
2018-02-13T09:13:46.236Z,11.32
2018-02-13T09:16:14.937Z,11.75
2018-02-13T09:18:42.697Z,10.70
2018-02-13T09:21:10.473Z,12.00
2018-02-13T09:23:38.072Z,12.37
2018-02-13T09:26:05.615Z,10.82
2018-02-13T09:28:33.161Z,10.13
2018-02-13T09:31:00.734Z,11.40
2018-02-13T09:33:28.497Z,10.98
2018-02-13T09:35:56.119Z,10.70
2018-02-13T09:38:23.663Z,11.57
2018-02-13T09:40:52.115Z,11.52
2018-02-13T09:43:19.754Z,11.10
2018-02-13T09:45:47.353Z,13.93
2018-02-13T09:48:15.695Z,11.40
2018-02-13T09:50:43.217Z,11.55
2018-02-13T09:53:10.779Z,10.68
2018-02-13T09:55:38.528Z,11.10
2018-02-13T09:58:06.279Z,10.60
2018-02-13T10:00:34.558Z,10.23
2018-02-13T10:03:02.895Z,11.18
2018-02-13T10:05:30.386Z,9.88
2018-02-13T10:07:57.888Z,10.95
2018-02-13T10:10:25.387Z,13.52
2018-02-13T10:12:52.891Z,9.85
2018-02-13T10:15:20.394Z,10.75
2018-02-13T10:17:47.937Z,13.35
2018-02-13T10:20:16.155Z,10.75
2018-02-13T10:22:43.657Z,10.70
2018-02-13T10:25:11.283Z,14.20
2018-02-13T10:27:39.581Z,10.32
2018-02-13T10:30:07.079Z,10.68
2018-02-13T10:32:34.790Z,11.60
2018-02-13T10:35:03.267Z,11.48
2018-02-13T10:37:31.544Z,10.18
2018-02-13T10:39:59.810Z,10.60
2018-02-13T10:42:28.087Z,11.18
2018-02-13T10:44:56.350Z,11.43
2018-02-13T10:47:23.846Z,10.57
2018-02-13T10:49:51.493Z,11.07
2018-02-13T10:52:19.006Z,10.57
2018-02-13T10:54:46.711Z,10.43
2018-02-13T10:57:15.090Z,11.38
2018-02-13T10:59:43.350Z,10.63
2018-02-13T11:02:17.266Z,14.38
2018-02-13T11:04:45.654Z,11.05
2018-02-13T11:07:14.035Z,10.38
2018-02-13T11:09:42.305Z,10.68
2018-02-13T11:12:10.570Z,10.57
2018-02-13T11:14:38.055Z,11.40
2018-02-13T11:17:05.558Z,10.57
2018-02-13T11:19:33.269Z,9.30
2018-02-13T11:22:01.534Z,10.30
2018-02-13T11:24:29.802Z,10.85
2018-02-13T11:26:57.406Z,10.80
2018-02-13T11:29:24.895Z,7.95
2018-02-13T11:31:52.391Z,10.32
2018-02-13T11:34:20.643Z,9.82
2018-02-13T11:36:48.139Z,10.80
2018-02-13T11:39:16.406Z,10.25
2018-02-13T11:41:44.671Z,9.73
2018-02-13T11:44:12.951Z,8.75
2018-02-13T11:46:41.335Z,9.43
2018-02-13T11:49:09.588Z,10.02
2018-02-13T11:51:37.275Z,10.18
2018-02-13T11:54:05.530Z,8.90
2018-02-13T11:56:33.210Z,9.68
2018-02-13T11:59:01.483Z,9.48
2018-02-13T12:01:29.742Z,10.25
2018-02-13T12:03:57.251Z,11.15
2018-02-13T12:06:24.738Z,9.35
2018-02-13T12:08:52.444Z,9.40
2018-02-13T12:11:20.694Z,9.80
2018-02-13T12:13:48.182Z,9.68
2018-02-13T12:16:16.450Z,10.50
2018-02-13T12:18:44.723Z,10.98
2018-02-13T12:21:13.012Z,10.90
2018-02-13T12:23:41.270Z,13.43
2018-02-13T12:26:09.530Z,11.52
2018-02-13T12:28:37.022Z,12.80
2018-02-13T12:31:05.294Z,13.85
2018-02-13T12:33:33.596Z,13.95
2018-02-13T12:36:01.091Z,13.73
2018-02-13T12:38:28.588Z,13.50
2018-02-13T12:40:56.846Z,13.45
2018-02-13T12:43:25.109Z,13.75
2018-02-13T12:45:52.799Z,12.75
2018-02-13T12:48:20.318Z,12.95
2018-02-13T12:50:47.828Z,12.93
2018-02-13T12:53:15.319Z,11.00
2018-02-13T12:55:42.828Z,10.82
2018-02-13T12:58:11.093Z,11.15
2018-02-13T13:00:38.594Z,11.95
2018-02-13T13:03:06.089Z,12.10
2018-02-13T13:05:33.719Z,11.73
2018-02-13T13:08:01.270Z,10.43
2018-02-13T13:10:28.818Z,12.20
2018-02-13T13:12:56.375Z,12.55
2018-02-13T13:15:24.675Z,10.55
2018-02-13T13:17:52.205Z,10.85
2018-02-13T13:20:20.562Z,11.32
2018-02-13T13:22:48.878Z,11.48
2018-02-13T13:25:16.414Z,11.10
2018-02-13T13:27:44.971Z,13.93
2018-02-13T13:30:12.489Z,11.15
2018-02-13T13:32:40.026Z,10.43
2018-02-13T13:35:07.554Z,12.85
2018-02-13T13:37:35.869Z,12.20
2018-02-13T13:40:03.426Z,14.10
2018-02-13T13:42:31.035Z,13.23
2018-02-13T13:44:58.609Z,14.80
2018-02-13T13:47:26.147Z,12.82
2018-02-13T13:49:54.026Z,14.75
2018-02-13T13:52:21.562Z,12.37
2018-02-13T13:54:49.074Z,11.70
2018-02-13T13:57:17.389Z,14.05
2018-02-13T13:59:44.920Z,12.15
2018-02-13T14:02:12.455Z,12.20
2018-02-13T14:04:40.026Z,12.88
2018-02-13T14:07:08.350Z,13.10
2018-02-13T14:09:36.203Z,12.37
2018-02-13T14:12:03.827Z,14.27
2018-02-13T14:14:32.098Z,13.90
2018-02-13T14:16:59.664Z,17.02
2018-02-13T14:19:27.138Z,13.57
2018-02-13T14:21:54.653Z,14.00
2018-02-13T14:24:22.159Z,13.23
2018-02-13T14:26:49.812Z,15.05
2018-02-13T14:29:17.503Z,14.70
2018-02-13T14:31:45.041Z,14.40
2018-02-13T14:34:13.861Z,13.50
2018-02-13T14:36:41.475Z,13.73
2018-02-13T14:39:09.968Z,14.75
2018-02-13T14:41:38.223Z,15.10
2018-02-13T14:44:05.719Z,14.60
2018-02-13T14:46:33.230Z,14.63
2018-02-13T14:49:00.746Z,15.25
2018-02-13T14:51:28.295Z,15.40
2018-02-13T14:53:55.927Z,15.05
2018-02-13T14:56:24.412Z,16.23
2018-02-13T14:58:52.682Z,17.27
2018-02-13T15:01:20.946Z,15.32
2018-02-13T15:03:48.461Z,17.90
2018-02-13T15:06:15.966Z,15.68
2018-02-13T15:08:43.459Z,15.57
2018-02-13T15:11:10.963Z,17.33
2018-02-13T15:13:38.572Z,17.20
2018-02-13T15:16:06.074Z,17.73
2018-02-13T15:18:36.390Z,16.50
2018-02-13T15:21:03.947Z,16.77
2018-02-13T15:23:31.440Z,19.85
2018-02-13T15:25:58.939Z,16.17
2018-02-13T15:28:26.446Z,16.75
2018-02-13T15:30:53.939Z,17.10
2018-02-13T15:33:21.548Z,17.67
2018-02-13T15:35:49.040Z,19.00
2018-02-13T15:38:17.307Z,19.98
2018-02-13T15:40:44.811Z,21.87
2018-02-13T15:43:12.298Z,17.92
2018-02-13T15:45:40.007Z,18.08
2018-02-13T15:48:08.274Z,17.12
2018-02-13T15:50:36.531Z,17.20
2018-02-13T15:53:04.023Z,17.12
2018-02-13T15:55:31.514Z,17.10
2018-02-13T15:57:59.018Z,17.05
2018-02-13T16:00:26.515Z,15.30
2018-02-13T16:02:54.008Z,16.50
2018-02-13T16:05:21.498Z,16.15
2018-02-13T16:07:49.909Z,15.43
2018-02-13T16:10:17.423Z,14.70
2018-02-13T16:12:44.920Z,16.62
2018-02-13T16:15:12.463Z,17.12
2018-02-13T16:17:40.722Z,13.62
2018-02-13T16:20:09.000Z,15.40
2018-02-13T16:22:37.271Z,18.67
2018-02-13T16:25:04.772Z,17.42
2018-02-13T16:27:32.267Z,19.65
2018-02-13T16:29:59.762Z,21.80
2018-02-13T16:32:27.286Z,21.45
2018-02-13T16:34:54.782Z,19.05
2018-02-13T16:37:23.039Z,18.70
2018-02-13T16:39:50.537Z,19.55
2018-02-13T16:42:18.030Z,18.25
2018-02-13T16:44:45.534Z,20.00
2018-02-13T16:47:13.807Z,19.33
2018-02-13T16:49:42.291Z,17.85
2018-02-13T16:52:10.546Z,17.85
2018-02-13T16:54:38.040Z,17.95
2018-02-13T16:57:05.543Z,20.20
2018-02-13T16:59:33.044Z,19.05
2018-02-13T17:02:01.310Z,19.10
2018-02-13T17:04:29.616Z,19.50
2018-02-13T17:06:57.110Z,18.95
2018-02-13T17:09:24.618Z,18.90
2018-02-13T17:11:52.119Z,18.00
2018-02-13T17:14:19.606Z,18.37
2018-02-13T17:16:47.880Z,29.50
2018-02-13T17:19:15.382Z,52.42
2018-02-13T17:21:42.878Z,38.83
2018-02-13T17:24:10.578Z,37.03
2018-02-13T17:26:38.834Z,27.00
2018-02-13T17:29:06.331Z,26.90
2018-02-13T17:31:33.838Z,24.33
2018-02-13T17:34:02.116Z,22.48
2018-02-13T17:36:29.610Z,22.27
2018-02-13T17:38:57.171Z,28.38
2018-02-13T17:41:24.682Z,28.83
2018-02-13T17:43:52.190Z,28.80
2018-02-13T17:46:19.692Z,33.95
2018-02-13T17:48:47.182Z,32.92
2018-02-13T17:51:15.464Z,32.17
2018-02-13T17:53:43.734Z,28.75
2018-02-13T17:56:11.239Z,24.70
2018-02-13T17:58:38.763Z,29.08
2018-02-13T18:01:07.047Z,24.15
2018-02-13T18:03:35.303Z,19.95
2018-02-13T18:06:02.988Z,22.17
2018-02-13T18:08:30.507Z,19.05
2018-02-13T18:10:58.006Z,19.70
2018-02-13T18:13:26.278Z,20.25
2018-02-13T18:15:53.787Z,24.73
2018-02-13T18:18:21.288Z,35.90
2018-02-13T18:20:49.547Z,32.30
2018-02-13T18:23:17.807Z,37.63
2018-02-13T18:25:45.315Z,42.85
2018-02-13T18:28:12.824Z,29.30
2018-02-13T18:30:40.326Z,28.25
2018-02-13T18:33:07.883Z,21.90
2018-02-13T18:35:35.406Z,22.52
2018-02-13T18:38:02.895Z,19.50
2018-02-13T18:40:31.158Z,22.77
2018-02-13T18:42:59.431Z,21.55
2018-02-13T18:45:27.690Z,22.52
2018-02-13T18:47:55.195Z,21.92
2018-02-13T18:50:22.699Z,22.05
2018-02-13T18:55:18.458Z,23.42
2018-02-13T18:57:45.963Z,22.10
2018-02-13T19:00:13.453Z,22.27
2018-02-13T19:02:40.958Z,23.30
2018-02-13T19:05:08.604Z,25.12
2018-02-13T19:07:36.874Z,25.48
2018-02-13T19:10:05.145Z,28.20
2018-02-13T19:12:32.745Z,26.60
2018-02-13T19:15:00.383Z,24.52
2018-02-13T19:17:28.639Z,23.30
2018-02-13T19:19:56.142Z,22.67
2018-02-13T19:22:23.770Z,22.30
2018-02-13T19:24:52.167Z,21.80
2018-02-13T19:27:19.826Z,23.55
2018-02-13T19:29:47.343Z,23.05
2018-02-13T19:32:14.861Z,25.08
2018-02-13T19:34:42.358Z,22.50
2018-02-13T19:37:09.878Z,23.70
2018-02-13T19:39:37.386Z,22.13
2018-02-13T19:42:04.995Z,22.15
2018-02-13T19:44:32.502Z,21.85
2018-02-13T19:47:00.017Z,27.15
2018-02-13T19:49:27.526Z,24.25
2018-02-13T19:51:55.131Z,26.92
2018-02-13T19:54:22.773Z,24.12
2018-02-13T19:56:51.038Z,24.63
2018-02-13T19:59:19.314Z,21.20
2018-02-13T20:01:47.687Z,22.27
2018-02-13T20:04:15.951Z,23.23
2018-02-13T20:06:43.561Z,23.65
2018-02-13T20:09:11.206Z,22.95
2018-02-13T20:11:38.701Z,22.30
2018-02-13T20:14:06.194Z,21.23
2018-02-13T20:16:33.715Z,23.50
2018-02-13T20:19:01.250Z,25.02
2018-02-13T20:21:28.774Z,25.37
2018-02-13T20:23:56.289Z,22.40
2018-02-13T20:26:23.797Z,22.95
2018-02-13T20:28:52.092Z,22.70
2018-02-13T20:31:19.586Z,25.12
2018-02-13T20:33:47.111Z,28.00
2018-02-13T20:36:14.647Z,27.45
2018-02-13T20:38:42.910Z,28.50
2018-02-13T20:41:10.402Z,32.55
2018-02-13T20:43:37.911Z,32.42
2018-02-13T20:46:05.415Z,30.62
2018-02-13T20:48:33.678Z,33.20
2018-02-13T20:51:01.947Z,33.42
2018-02-13T20:53:29.440Z,34.88
2018-02-13T20:55:56.933Z,34.55
2018-02-13T20:58:24.442Z,34.00
2018-02-13T21:00:52.727Z,32.88
2018-02-13T21:03:20.223Z,33.35
2018-02-13T21:05:47.930Z,26.58
2018-02-13T21:08:16.406Z,28.52
2018-02-13T21:10:44.667Z,25.95
2018-02-13T21:13:12.163Z,26.70
2018-02-13T21:15:39.670Z,22.02
2018-02-13T21:18:07.179Z,22.10
2018-02-13T21:20:34.679Z,22.65
2018-02-13T21:23:02.178Z,22.20
2018-02-13T21:25:30.484Z,23.27
2018-02-13T21:27:57.986Z,22.85
2018-02-13T21:30:25.597Z,23.25
2018-02-13T21:32:53.098Z,22.60
2018-02-13T21:35:20.610Z,24.77
2018-02-13T21:37:48.214Z,25.02
2018-02-13T21:40:15.710Z,24.60
2018-02-13T21:42:43.973Z,22.87
2018-02-13T21:45:11.475Z,24.42
2018-02-13T21:47:38.978Z,23.90
2018-02-13T21:50:06.475Z,22.45
2018-02-13T21:52:33.966Z,23.73
2018-02-13T21:55:01.474Z,24.87
2018-02-13T21:57:29.734Z,23.00
2018-02-13T21:59:57.994Z,24.75
2018-02-13T22:02:25.502Z,25.37
2018-02-13T22:04:52.998Z,22.73
2018-02-13T22:07:20.507Z,22.95
2018-02-13T22:09:48.771Z,23.02
2018-02-13T22:12:17.263Z,23.95
2018-02-13T22:14:45.522Z,23.73
2018-02-13T22:17:13.126Z,23.55
2018-02-13T22:19:40.618Z,24.35
2018-02-13T22:22:08.134Z,23.42
2018-02-13T22:24:35.643Z,24.85
2018-02-13T22:27:03.179Z,25.85
2018-02-13T22:29:30.674Z,23.10
2018-02-13T22:31:58.188Z,23.42
2018-02-13T22:34:25.687Z,23.70
2018-02-13T22:36:53.956Z,24.70
2018-02-13T22:39:21.646Z,23.62
2018-02-13T22:41:49.917Z,25.37
2018-02-13T22:44:18.182Z,24.15
2018-02-13T22:46:45.870Z,25.35
2018-02-13T22:49:13.367Z,35.03
2018-02-13T22:51:40.882Z,27.30
2018-02-13T22:54:09.149Z,26.98
2018-02-13T22:56:37.409Z,23.30
2018-02-13T22:59:05.027Z,24.67
2018-02-13T23:01:32.514Z,24.63
2018-02-13T23:04:00.028Z,28.67
2018-02-13T23:06:27.526Z,27.75
2018-02-13T23:08:55.029Z,27.35
2018-02-13T23:11:23.516Z,26.67
2018-02-13T23:13:51.332Z,27.90
2018-02-13T23:16:18.831Z,27.83
2018-02-13T23:18:47.086Z,25.85
2018-02-13T23:21:14.577Z,27.35
2018-02-13T23:23:42.070Z,24.58
2018-02-13T23:26:09.581Z,26.25
2018-02-13T23:28:37.839Z,26.65
2018-02-13T23:31:05.342Z,26.33
2018-02-13T23:33:32.846Z,25.30
2018-02-13T23:36:00.343Z,27.10
2018-02-13T23:38:27.862Z,26.20
2018-02-13T23:40:55.368Z,26.50
2018-02-13T23:43:22.877Z,24.65
2018-02-13T23:45:50.385Z,28.02
2018-02-13T23:48:18.026Z,27.10
2018-02-13T23:50:46.278Z,27.23
2018-02-13T23:53:13.962Z,27.75
2018-02-13T23:55:42.218Z,26.80
2018-02-13T23:58:09.714Z,30.60
